Time;durP1;ratioP1;P1;durP2;ratioP2;P2;SDS_P1;SDS_P2;PMS_P1;PMS_P2;Temp;Humidity;BMP_temperature;BMP_pressure;BME280_temperature;BME280_humidity;BME280_pressure;Samples;Min_cycle;Max_cycle;Signal;HPM_P1;HPM_P2
2022/08/24 00:00:47;;;;;;;18.75;7.95;;;;;;;20.44;100.00;101166.56;2079084;28;20041;-70
2022/08/24 00:01:52;;;;;;;17.95;7.32;;;;;;;20.44;100.00;101169.31;2072242;28;20522;-70
2022/08/24 00:02:58;;;;;;;21.48;7.88;;;;;;;20.42;100.00;101166.09;2070955;28;20034;-70
2022/08/24 00:04:01;;;;;;;25.13;8.25;;;;;;;20.43;100.00;101166.88;2063481;28;20034;-70
2022/08/24 00:05:06;;;;;;;22.20;7.90;;;;;;;20.42;100.00;101163.34;2057276;28;20041;-70
2022/08/24 00:06:11;;;;;;;22.00;8.13;;;;;;;20.43;100.00;101162.25;2069177;28;20406;-70
2022/08/24 00:07:14;;;;;;;22.50;8.32;;;;;;;20.42;100.00;101159.84;2071438;28;20056;-69
2022/08/24 00:08:18;;;;;;;22.83;7.70;;;;;;;20.43;100.00;101164.16;2071583;28;20125;-70
2022/08/24 00:09:24;;;;;;;24.17;8.07;;;;;;;20.42;100.00;101163.34;2071650;28;20049;-70
2022/08/24 00:10:36;;;;;;;21.67;7.90;;;;;;;20.42;100.00;101166.09;2072070;28;20072;-70
2022/08/24 00:11:43;;;;;;;15.80;7.10;;;;;;;20.40;100.00;101159.34;2079426;28;20052;-70
2022/08/24 00:12:47;;;;;;;20.77;7.25;;;;;;;20.35;100.00;101155.69;2063295;28;20060;-70
2022/08/24 00:13:53;;;;;;;22.17;7.75;;;;;;;20.37;100.00;101158.09;2064372;28;20050;-70
2022/08/24 00:14:58;;;;;;;17.17;7.75;;;;;;;20.35;100.00;101160.34;2069428;28;20045;-69
2022/08/24 00:16:02;;;;;;;19.05;7.97;;;;;;;20.34;100.00;101165.03;2071005;28;20038;-69
2022/08/24 00:17:03;;;;;;;15.20;7.40;;;;;;;20.34;100.00;101166.97;2071488;28;20037;-69
2022/08/24 00:18:10;;;;;;;16.85;7.70;;;;;;;20.31;100.00;101167.63;2071725;28;20045;-70
2022/08/24 00:19:14;;;;;;;23.15;8.38;;;;;;;20.32;100.00;101161.00;2071308;28;20046;-69
2022/08/24 00:20:18;;;;;;;23.33;8.30;;;;;;;20.33;100.00;101168.06;2063314;28;20042;-70
2022/08/24 00:21:24;;;;;;;18.40;7.78;;;;;;;20.32;100.00;101166.47;2071242;28;20069;-69
2022/08/24 00:22:27;;;;;;;14.90;7.50;;;;;;;20.31;100.00;101164.88;2055613;28;20039;-69
2022/08/24 00:23:34;;;;;;;20.80;7.53;;;;;;;20.30;100.00;101163.25;2063822;28;20042;-69
2022/08/24 00:24:36;;;;;;;24.50;8.20;;;;;;;20.28;100.00;101165.53;2063213;28;20065;-69
2022/08/24 00:25:41;;;;;;;24.52;8.38;;;;;;;20.27;100.00;101158.47;2063759;28;20489;-69
2022/08/24 00:26:44;;;;;;;16.27;8.65;;;;;;;20.25;100.00;101163.47;2072113;28;20037;-69
2022/08/24 00:27:47;;;;;;;20.33;8.95;;;;;;;20.26;100.00;101156.88;2072507;28;20058;-70
2022/08/24 00:28:51;;;;;;;26.48;9.32;;;;;;;20.24;100.00;101165.41;2079553;28;20052;-69
2022/08/24 00:29:54;;;;;;;24.98;9.10;;;;;;;20.20;100.00;101152.72;2062740;28;20410;-69
2022/08/24 00:31:00;;;;;;;20.50;8.65;;;;;;;20.20;100.00;101158.19;2063941;28;20042;-69
2022/08/24 00:32:02;;;;;;;23.17;8.95;;;;;;;20.19;100.00;101156.59;2062866;28;20051;-69
2022/08/24 00:33:07;;;;;;;19.98;8.75;;;;;;;20.16;100.00;101158.03;2063956;28;20026;-70
2022/08/24 00:34:12;;;;;;;25.35;9.98;;;;;;;20.16;100.00;101157.25;2063059;28;20042;-69
2022/08/24 00:35:18;;;;;;;24.42;9.55;;;;;;;20.13;100.00;101148.56;2064755;28;20065;-70
2022/08/24 00:36:23;;;;;;;28.85;9.15;;;;;;;20.12;100.00;101154.38;2062291;28;20034;-70
2022/08/24 00:37:28;;;;;;;23.75;9.63;;;;;;;20.09;100.00;101152.31;2062617;28;20407;-68
2022/08/24 00:38:34;;;;;;;23.38;8.95;;;;;;;20.10;100.00;101151.16;2068541;28;20065;-68
2022/08/24 00:39:36;;;;;;;23.15;9.55;;;;;;;20.10;100.00;101153.91;2071351;28;20041;-68
2022/08/24 00:40:44;;;;;;;21.15;9.02;;;;;;;20.07;100.00;101160.81;2063311;28;20054;-68
2022/08/24 00:41:49;;;;;;;19.65;9.05;;;;;;;20.08;100.00;101154.25;2072305;28;20046;-68
2022/08/24 00:42:51;;;;;;;26.05;9.35;;;;;;;20.09;100.00;101155.81;2070901;28;20034;-68
2022/08/24 00:44:01;;;;;;;18.48;9.27;;;;;;;20.09;100.00;101155.81;2072868;28;20037;-69
2022/08/24 00:45:06;;;;;;;22.77;9.43;;;;;;;20.08;100.00;101148.78;2079843;28;20512;-69
2022/08/24 00:46:30;;;;;;;22.45;9.60;;;;;;;20.09;100.00;101153.09;2074009;28;20856;-69
2022/08/24 00:47:47;;;;;;;29.27;9.93;;;;;;;20.11;100.00;101145.41;2074288;28;20139;-69
2022/08/24 00:49:00;;;;;;;21.52;9.98;;;;;;;20.11;100.00;101150.03;2071198;28;20355;-69
2022/08/24 00:50:10;;;;;;;27.45;10.90;;;;;;;20.14;100.00;101144.75;2071520;28;20034;-69
2022/08/24 00:51:32;;;;;;;17.92;8.95;;;;;;;20.12;100.00;101138.78;2071240;28;20343;-69
2022/08/24 00:52:40;;;;;;;16.73;8.98;;;;;;;20.13;100.00;101148.56;2065698;28;20038;-69
2022/08/24 00:53:52;;;;;;;25.55;9.15;;;;;;;20.12;100.00;101140.72;2063028;28;20042;-69
2022/08/24 00:55:09;;;;;;;29.88;9.70;;;;;;;20.13;100.00;101148.56;2057952;28;20046;-70
2022/08/24 00:56:25;;;;;;;25.60;9.65;;;;;;;20.14;100.00;101142.00;2064490;28;20069;-69
2022/08/24 00:57:32;;;;;;;24.35;9.15;;;;;;;20.13;100.00;101145.84;2063068;28;20410;-69
2022/08/24 00:58:42;;;;;;;24.45;9.88;;;;;;;20.16;100.00;101135.41;2063321;28;20173;-68
2022/08/24 00:59:54;;;;;;;27.63;10.43;;;;;;;20.16;100.00;101136.19;2056648;28;20542;-68
2022/08/24 01:01:01;;;;;;;24.55;9.93;;;;;;;20.16;100.00;101135.41;2056034;28;20094;-68
2022/08/24 01:02:10;;;;;;;21.90;9.57;;;;;;;20.11;100.00;101134.47;2054990;28;20046;-68
2022/08/24 01:03:21;;;;;;;28.83;10.02;;;;;;;20.14;100.00;101133.81;2052976;28;20054;-74
2022/08/24 01:04:31;;;;;;;17.13;9.25;;;;;;;20.12;100.00;101125.16;2063054;28;20042;-73
2022/08/24 01:05:35;;;;;;;23.38;9.73;;;;;;;20.14;100.00;101130.25;2056987;28;20487;-72
2022/08/24 01:06:40;;;;;;;29.58;10.05;;;;;;;20.12;100.00;101129.81;2063351;28;20457;-72
2022/08/24 01:07:49;;;;;;;20.25;9.48;;;;;;;20.08;100.00;101132.41;2054938;28;20051;-71
2022/08/24 01:08:53;;;;;;;29.70;9.02;;;;;;;20.09;100.00;101123.06;2057127;28;20041;-72
2022/08/24 01:10:03;;;;;;;32.78;10.63;;;;;;;20.10;100.00;101121.94;2064178;28;20042;-72
2022/08/24 01:11:16;;;;;;;29.38;9.25;;;;;;;20.08;100.00;101124.22;2067176;28;20034;-71
2022/08/24 01:12:26;;;;;;;22.58;9.55;;;;;;;20.04;100.00;101128.69;2072591;28;20062;-71
2022/08/24 01:13:33;;;;;;;17.60;9.05;;;;;;;20.06;100.00;101126.47;2065605;28;20081;-70
2022/08/24 01:14:37;;;;;;;30.40;10.23;;;;;;;20.09;100.00;101125.00;2065272;28;20042;-70
2022/08/24 01:15:45;;;;;;;32.47;9.45;;;;;;;20.06;100.00;101128.38;2064979;28;20661;-70
2022/08/24 01:19:37;;;;;;;27.10;9.02;;;;;;;20.10;100.00;101121.13;2068012;28;20363;-71
2022/08/24 01:20:44;;;;;;;28.00;10.68;;;;;;;20.10;100.00;101121.94;2065095;28;20395;-71
2022/08/24 01:22:08;;;;;;;19.45;9.85;;;;;;;20.10;100.00;101121.13;2073211;28;20887;-71
2022/08/24 01:23:15;;;;;;;31.77;8.95;;;;;;;20.11;100.00;101122.72;2073274;28;20694;-72
2022/08/24 01:24:20;;;;;;;20.45;8.57;;;;;;;20.11;100.00;101122.72;2065296;28;20050;-72
2022/08/24 01:25:25;;;;;;;18.80;9.13;;;;;;;20.12;100.00;101125.16;2072819;28;20041;-71
2022/08/24 01:26:39;;;;;;;27.50;8.98;;;;;;;20.12;100.00;101119.69;2065674;28;20078;-71
2022/08/24 01:27:43;;;;;;;24.95;9.30;;;;;;;20.13;100.00;101124.00;2058222;28;20035;-71
2022/08/24 01:28:54;;;;;;;18.38;8.52;;;;;;;20.13;100.00;101121.28;2057322;28;20058;-71
2022/08/24 01:29:58;;;;;;;13.35;8.20;;;;;;;20.12;100.00;101116.94;2067968;28;20037;-71
2022/08/24 01:31:09;;;;;;;28.45;8.85;;;;;;;20.11;100.00;101128.19;2072645;28;20617;-73
2022/08/24 01:32:14;;;;;;;17.98;8.50;;;;;;;20.11;100.00;101125.47;2064316;28;20110;-72
2022/08/24 01:33:27;;;;;;;16.67;8.20;;;;;;;20.13;100.00;101125.94;2058542;28;20050;-71
2022/08/24 01:34:35;;;;;;;25.55;8.25;;;;;;;20.13;100.00;101134.94;2059272;28;20042;-70
2022/08/24 01:35:37;;;;;;;21.15;8.68;;;;;;;20.11;100.00;101133.66;2073184;28;20038;-71
2022/08/24 01:36:47;;;;;;;23.00;8.43;;;;;;;20.13;100.00;101131.41;2072613;28;20042;-73
2022/08/24 01:37:56;;;;;;;46.78;9.10;;;;;;;20.14;100.00;101127.53;2057469;28;20135;-73
2022/08/24 01:39:19;;;;;;;35.03;8.60;;;;;;;20.10;100.00;101127.38;2057426;28;20043;-73
2022/08/24 01:40:28;;;;;;;36.78;9.68;;;;;;;20.12;100.00;101129.81;2064564;28;20049;-74
2022/08/24 01:41:30;;;;;;;16.23;8.15;;;;;;;20.12;100.00;101125.16;2057830;28;20526;-74
2022/08/24 01:42:33;;;;;;;22.30;8.77;;;;;;;20.13;100.00;101136.84;2064627;28;20034;-71
2022/08/24 01:43:38;;;;;;;22.08;8.02;;;;;;;20.14;100.00;101133.81;2069160;28;20038;-71
2022/08/24 01:44:45;;;;;;;20.15;8.32;;;;;;;20.16;100.00;101135.41;2072994;28;20056;-73
2022/08/24 01:45:49;;;;;;;17.92;9.52;;;;;;;20.14;100.00;101133.00;2070556;28;20042;-71
2022/08/24 01:46:54;;;;;;;26.45;8.98;;;;;;;20.17;100.00;101134.28;2064403;28;20030;-72
2022/08/24 01:47:58;;;;;;;17.83;8.27;;;;;;;20.17;100.00;101131.53;2064429;28;20486;-72
2022/08/24 01:49:04;;;;;;;18.30;9.02;;;;;;;20.16;100.00;101138.13;2048460;28;20066;-71
2022/08/24 01:50:11;;;;;;;15.75;9.13;;;;;;;20.17;100.00;101137.00;2049665;28;20035;-72
2022/08/24 01:51:19;;;;;;;42.45;9.20;;;;;;;20.17;100.00;101137.00;2057023;28;20054;-69
2022/08/24 01:52:24;;;;;;;22.85;8.30;;;;;;;20.16;100.00;101136.19;2068764;28;20048;-69
2022/08/24 01:53:27;;;;;;;22.05;8.90;;;;;;;20.16;100.00;101135.41;2056261;28;20047;-69
2022/08/24 01:54:30;;;;;;;18.90;8.90;;;;;;;20.17;100.00;101137.78;2056438;28;20568;-70
2022/08/24 01:55:37;;;;;;;19.10;9.18;;;;;;;20.18;100.00;101138.63;2048439;28;20486;-72
2022/08/24 01:56:41;;;;;;;17.25;8.50;;;;;;;20.14;100.00;101139.28;2041275;28;20044;-72
2022/08/24 01:57:45;;;;;;;28.15;9.13;;;;;;;20.15;100.00;101134.59;2048690;28;20047;-72
2022/08/24 01:58:56;;;;;;;26.15;9.45;;;;;;;20.14;100.00;101142.00;2041143;28;20058;-73
2022/08/24 01:59:59;;;;;;;18.23;8.70;;;;;;;20.17;100.00;101137.00;2050279;28;20062;-73
2022/08/24 02:01:01;;;;;;;27.00;9.48;;;;;;;20.18;100.00;101139.41;2064238;28;20042;-73
2022/08/24 02:02:15;;;;;;;24.67;9.00;;;;;;;20.17;100.00;101135.06;2056318;28;20051;-74
2022/08/24 02:03:22;;;;;;;14.93;8.88;;;;;;;20.15;100.00;101140.06;2047285;28;20027;-71
2022/08/24 02:04:31;;;;;;;19.25;9.05;;;;;;;20.18;100.00;101133.94;2056445;28;20046;-72
2022/08/24 02:05:43;;;;;;;21.75;9.65;;;;;;;20.22;100.00;101134.09;2066083;28;20061;-68
2022/08/24 02:06:49;;;;;;;18.10;8.63;;;;;;;20.20;100.00;101128.16;2072454;28;20073;-63
2022/08/24 02:07:59;;;;;;;15.48;8.57;;;;;;;20.20;100.00;101128.16;2056468;28;20053;-64
2022/08/24 02:09:09;;;;;;;18.10;9.23;;;;;;;20.19;100.00;101129.28;2066858;28;20400;-64
2022/08/24 02:10:13;;;;;;;20.30;9.52;;;;;;;20.18;100.00;101133.16;2063868;28;20050;-63
2022/08/24 02:11:18;;;;;;;15.98;8.75;;;;;;;20.13;100.00;101131.41;2056889;28;20042;-63
2022/08/24 02:12:22;;;;;;;23.23;8.88;;;;;;;20.12;100.00;101135.28;2048670;28;20050;-63
2022/08/24 02:13:26;;;;;;;27.08;9.13;;;;;;;20.11;100.00;101144.56;2056921;28;20043;-63
2022/08/24 02:14:29;;;;;;;15.38;8.75;;;;;;;20.10;100.00;101132.84;2056268;28;20038;-63
2022/08/24 02:15:39;;;;;;;17.08;9.05;;;;;;;20.10;100.00;101127.38;2048580;28;20045;-63
2022/08/24 02:16:48;;;;;;;18.27;9.10;;;;;;;20.11;100.00;101133.66;2058082;28;20054;-65
2022/08/24 02:17:58;;;;;;;19.10;8.88;;;;;;;20.12;100.00;101129.81;2052056;28;20456;-63
2022/08/24 02:19:03;;;;;;;24.52;8.50;;;;;;;20.13;100.00;101136.84;2065313;28;20046;-63
2022/08/24 02:20:10;;;;;;;19.13;9.15;;;;;;;20.16;100.00;101140.88;2063756;28;20052;-63
2022/08/24 02:21:12;;;;;;;15.68;8.27;;;;;;;20.15;100.00;101134.59;2049561;28;20422;-62
2022/08/24 02:22:18;;;;;;;20.80;9.02;;;;;;;20.13;100.00;101137.66;2064509;28;20046;-63
2022/08/24 02:23:21;;;;;;;18.42;8.35;;;;;;;20.13;100.00;101145.84;2072094;28;20545;-63
2022/08/24 02:24:26;;;;;;;18.45;8.70;;;;;;;20.11;100.00;101147.28;2072610;28;20042;-63
2022/08/24 02:25:37;;;;;;;18.27;8.38;;;;;;;20.12;100.00;101144.25;2064093;28;20042;-63
2022/08/24 02:26:42;;;;;;;15.07;8.30;;;;;;;20.14;100.00;101154.84;2050367;28;20050;-63
2022/08/24 02:27:45;;;;;;;17.40;7.97;;;;;;;20.14;100.00;101150.19;2065801;28;20050;-63
2022/08/24 02:28:50;;;;;;;16.70;8.45;;;;;;;20.14;100.00;101155.66;2071448;28;20046;-64
2022/08/24 02:29:54;;;;;;;16.52;8.63;;;;;;;20.16;100.00;101151.78;2061291;28;20046;-63
2022/08/24 02:30:58;;;;;;;18.33;7.78;;;;;;;20.22;100.00;101166.84;2064372;28;20050;-63
2022/08/24 02:32:00;;;;;;;20.70;7.70;;;;;;;20.22;100.00;101166.84;2072561;28;20044;-63
2022/08/24 02:33:07;;;;;;;14.82;7.40;;;;;;;20.23;100.00;101168.44;2071286;28;20046;-63
2022/08/24 02:34:11;;;;;;;19.95;8.38;;;;;;;20.23;100.00;101168.44;2072993;28;20049;-63
2022/08/24 02:35:16;;;;;;;14.93;7.93;;;;;;;20.24;100.00;101170.03;2072092;28;20066;-63
2022/08/24 02:36:24;;;;;;;18.08;8.50;;;;;;;20.25;100.00;101172.47;2056833;28;20057;-63
2022/08/24 02:37:29;;;;;;;18.17;8.27;;;;;;;20.26;100.00;101181.44;2057438;28;20055;-63
2022/08/24 02:38:34;;;;;;;14.02;7.88;;;;;;;20.26;100.00;101174.03;2064636;28;20045;-63
2022/08/24 02:39:36;;;;;;;20.88;8.00;;;;;;;20.24;100.00;101180.97;2047941;28;20510;-63
2022/08/24 02:40:42;;;;;;;16.95;7.65;;;;;;;20.24;100.00;101181.78;2041952;28;20047;-63
2022/08/24 02:41:50;;;;;;;14.07;7.85;;;;;;;20.24;100.00;101180.97;2048735;28;20045;-64
2022/08/24 02:42:52;;;;;;;15.88;7.68;;;;;;;20.23;100.00;101180.16;2057193;28;20399;-64
2022/08/24 02:44:01;;;;;;;18.17;8.10;;;;;;;20.24;100.00;101170.03;2068678;28;20046;-64
2022/08/24 02:45:07;;;;;;;20.38;7.20;;;;;;;20.24;100.00;101178.22;2066190;28;20038;-63
2022/08/24 02:46:21;;;;;;;13.15;7.53;;;;;;;20.25;100.00;101182.59;2065191;28;20046;-63
2022/08/24 02:47:29;;;;;;;16.00;7.95;;;;;;;20.26;100.00;101178.72;2076748;28;20394;-63
2022/08/24 02:48:33;;;;;;;15.50;7.63;;;;;;;20.27;100.00;101183.88;2080270;28;20060;-63
2022/08/24 02:49:38;;;;;;;13.95;7.22;;;;;;;20.30;100.00;101179.66;2064098;28;20539;-63
2022/08/24 02:50:42;;;;;;;15.18;7.40;;;;;;;20.30;100.00;101177.75;2064479;28;20050;-63
2022/08/24 02:51:49;;;;;;;21.60;7.18;;;;;;;20.29;100.00;101183.50;2064038;28;20098;-62
2022/08/24 02:52:56;;;;;;;21.30;7.70;;;;;;;20.29;100.00;101188.97;2064027;28;20474;-63
2022/08/24 02:54:02;;;;;;;16.95;8.13;;;;;;;20.26;100.00;101184.97;2056040;28;20031;-63
2022/08/24 02:55:10;;;;;;;19.98;8.23;;;;;;;20.24;100.00;101178.22;2056784;28;20046;-63
2022/08/24 02:56:13;;;;;;;20.35;8.80;;;;;;;20.25;100.00;101185.31;2056778;28;20046;-63
2022/08/24 02:57:21;;;;;;;22.83;8.45;;;;;;;20.22;100.00;101177.78;2064700;28;20537;-63
2022/08/24 02:58:28;;;;;;;26.13;8.27;;;;;;;20.19;100.00;101171.03;2055400;28;20051;-63
2022/08/24 02:59:30;;;;;;;21.75;9.23;;;;;;;20.23;100.00;101184.84;2060417;28;20038;-63
2022/08/24 03:00:32;;;;;;;15.18;8.23;;;;;;;20.22;100.00;101180.50;2055370;28;20510;-63
2022/08/24 03:01:35;;;;;;;24.63;8.55;;;;;;;20.21;100.00;101178.88;2047615;28;20059;-63
2022/08/24 03:02:39;;;;;;;21.88;7.75;;;;;;;20.21;100.00;101176.97;2055917;28;20106;-63
2022/08/24 03:03:43;;;;;;;17.80;8.77;;;;;;;20.22;100.00;101172.31;2061832;28;20065;-63
2022/08/24 03:04:48;;;;;;;18.77;7.68;;;;;;;20.24;100.00;101175.50;2056419;28;20034;-63
2022/08/24 03:05:50;;;;;;;20.92;8.18;;;;;;;20.26;100.00;101178.72;2050980;28;20077;-62
2022/08/24 03:06:55;;;;;;;22.90;8.07;;;;;;;20.27;100.00;101181.13;2064316;28;20058;-63
2022/08/24 03:07:57;;;;;;;19.25;8.70;;;;;;;20.26;100.00;101176.78;2071938;28;20057;-63
2022/08/24 03:09:02;;;;;;;18.30;8.88;;;;;;;20.26;100.00;101184.19;2055685;28;20069;-64
2022/08/24 03:10:07;;;;;;;27.10;8.55;;;;;;;20.24;100.00;101179.06;2048718;28;20035;-63
2022/08/24 03:11:13;;;;;;;25.73;9.00;;;;;;;20.24;100.00;101170.03;2064225;28;20496;-63
2022/08/24 03:12:18;;;;;;;23.55;9.68;;;;;;;20.25;100.00;101171.66;2072115;28;20068;-64
2022/08/24 03:13:23;;;;;;;24.30;9.40;;;;;;;20.26;100.00;101178.72;2063328;28;20049;-63
2022/08/24 03:14:26;;;;;;;20.08;8.80;;;;;;;20.24;100.00;101170.88;2063629;28;20117;-63
2022/08/24 03:15:34;;;;;;;19.67;9.43;;;;;;;20.24;100.00;101176.31;2056616;28;20062;-63
2022/08/24 03:16:38;;;;;;;21.02;9.25;;;;;;;20.26;100.00;101170.53;2064810;28;20050;-63
2022/08/24 03:17:45;;;;;;;20.23;8.85;;;;;;;20.25;100.00;101177.91;2063670;28;20042;-63
2022/08/24 03:18:50;;;;;;;20.98;9.13;;;;;;;20.29;100.00;101178.06;2064082;28;20054;-63
2022/08/24 03:19:54;;;;;;;23.10;9.80;;;;;;;20.29;100.00;101180.78;2063713;28;20462;-63
2022/08/24 03:21:01;;;;;;;20.80;8.27;;;;;;;20.32;100.00;101189.13;2064095;28;20041;-63
2022/08/24 03:22:06;;;;;;;19.83;9.68;;;;;;;20.35;100.00;101187.66;2063781;28;20049;-63
2022/08/24 03:23:14;;;;;;;18.15;8.65;;;;;;;20.36;100.00;101183.78;2063426;28;20057;-63
2022/08/24 03:24:22;;;;;;;26.65;9.38;;;;;;;20.37;100.00;101182.69;2056412;28;20491;-63
2022/08/24 03:25:26;;;;;;;19.08;8.65;;;;;;;20.36;100.00;101190.09;2053160;28;20039;-65
2022/08/24 03:26:31;;;;;;;21.02;8.82;;;;;;;20.36;100.00;101189.25;2048260;28;20047;-63
2022/08/24 03:27:33;;;;;;;16.48;8.77;;;;;;;20.38;100.00;101200.66;2047717;28;20042;-63
2022/08/24 03:28:35;;;;;;;22.58;9.15;;;;;;;20.39;100.00;101191.31;2047649;28;20099;-63
2022/08/24 03:29:37;;;;;;;26.55;9.00;;;;;;;20.39;100.00;101194.06;2055089;28;20041;-64
2022/08/24 03:30:42;;;;;;;21.77;9.23;;;;;;;20.39;100.00;101199.53;2064045;28;20057;-63
2022/08/24 03:31:46;;;;;;;22.45;8.93;;;;;;;20.40;100.00;101195.69;2055003;28;20042;-63
2022/08/24 03:32:50;;;;;;;30.25;9.95;;;;;;;20.39;100.00;101194.06;2055611;28;20038;-63
2022/08/24 03:33:56;;;;;;;20.85;9.40;;;;;;;20.36;100.00;101198.28;2048220;28;20534;-64
2022/08/24 03:35:03;;;;;;;24.13;8.82;;;;;;;20.37;100.00;101197.13;2057247;28;20069;-63
2022/08/24 03:36:17;;;;;;;22.85;9.93;;;;;;;20.38;100.00;101198.72;2063599;28;20808;-63
2022/08/24 03:37:26;;;;;;;21.83;8.77;;;;;;;20.37;100.00;101208.06;2070753;28;20560;-63
2022/08/24 03:38:28;;;;;;;24.35;9.02;;;;;;;20.36;100.00;101201.00;2057432;28;20035;-63
2022/08/24 03:39:35;;;;;;;23.95;9.50;;;;;;;20.36;100.00;101206.47;2056432;28;20046;-63
2022/08/24 03:40:38;;;;;;;23.10;9.27;;;;;;;20.37;100.00;101208.06;2055164;28;20038;-63
2022/08/24 03:41:42;;;;;;;21.23;9.57;;;;;;;20.39;100.00;101213.19;2056196;28;20042;-63
2022/08/24 03:42:45;;;;;;;23.98;9.27;;;;;;;20.39;100.00;101207.72;2071360;28;20464;-63
2022/08/24 03:43:50;;;;;;;20.80;9.73;;;;;;;20.38;100.00;101208.84;2059181;28;20038;-63
2022/08/24 03:44:57;;;;;;;22.60;9.05;;;;;;;20.37;100.00;101207.25;2049043;28;20046;-63
2022/08/24 03:46:01;;;;;;;24.33;9.40;;;;;;;20.36;100.00;101216.56;2056165;28;20407;-63
2022/08/24 03:47:10;;;;;;;22.20;9.55;;;;;;;20.35;100.00;101214.97;2064133;28;20042;-64
2022/08/24 03:48:16;;;;;;;23.10;9.88;;;;;;;20.35;100.00;101214.97;2063393;28;20525;-62
2022/08/24 03:49:27;;;;;;;27.67;9.55;;;;;;;20.35;100.00;101215.78;2064719;28;20506;-64
2022/08/24 03:50:32;;;;;;;29.52;10.20;;;;;;;20.35;100.00;101214.97;2064747;28;20422;-62
2022/08/24 03:51:35;;;;;;;21.55;8.82;;;;;;;20.37;100.00;101215.47;2063254;28;20062;-63
2022/08/24 03:52:44;;;;;;;21.33;9.00;;;;;;;20.38;100.00;101217.06;2064267;28;20057;-63
2022/08/24 03:53:46;;;;;;;18.70;8.77;;;;;;;20.38;100.00;101219.78;2071565;28;20631;-63
2022/08/24 03:54:55;;;;;;;21.48;9.30;;;;;;;20.39;100.00;101215.91;2072038;28;20057;-64
2022/08/24 03:55:57;;;;;;;31.80;9.27;;;;;;;20.40;100.00;101220.25;2058957;28;20529;-63
2022/08/24 03:56:58;;;;;;;20.23;8.40;;;;;;;20.40;100.00;101223.00;2055509;28;20046;-63
2022/08/24 03:58:03;;;;;;;22.85;8.85;;;;;;;20.41;100.00;101215.59;2055273;28;20046;-63
2022/08/24 03:59:10;;;;;;;18.63;8.85;;;;;;;20.41;100.00;101219.13;2056867;28;20050;-64
2022/08/24 04:00:19;;;;;;;19.33;7.55;;;;;;;20.42;100.00;101219.91;2068216;28;20038;-64
2022/08/24 04:01:33;;;;;;;20.27;7.97;;;;;;;20.42;100.00;101220.72;2065388;28;20038;-64
2022/08/24 04:02:39;;;;;;;20.98;7.78;;;;;;;20.42;100.00;101220.72;2070098;28;20049;-64
2022/08/24 04:03:52;;;;;;;26.92;8.52;;;;;;;20.43;100.00;101227.81;2063596;28;20045;-63
2022/08/24 04:04:58;;;;;;;18.98;8.05;;;;;;;20.42;100.00;101219.91;2064771;28;20760;-63
2022/08/24 04:06:05;;;;;;;20.15;8.05;;;;;;;20.44;100.00;101228.59;2068519;28;20052;-63
2022/08/24 04:07:08;;;;;;;15.93;7.75;;;;;;;20.44;100.00;101228.59;2064033;28;20427;-65
2022/08/24 04:08:10;;;;;;;18.83;8.02;;;;;;;20.46;100.00;101235.34;2055420;28;20042;-63
2022/08/24 04:09:16;;;;;;;16.98;7.95;;;;;;;20.47;100.00;101233.41;2056296;28;20070;-63
2022/08/24 04:10:23;;;;;;;27.23;8.88;;;;;;;20.47;100.00;101236.94;2064464;28;20058;-63
2022/08/24 04:11:27;;;;;;;24.35;8.07;;;;;;;20.46;100.00;101231.78;2055677;28;20506;-63
2022/08/24 04:12:32;;;;;;;16.10;7.80;;;;;;;20.45;100.00;101235.66;2055923;28;20046;-63
2022/08/24 04:13:37;;;;;;;21.65;7.72;;;;;;;20.45;100.00;101236.44;2055720;28;20380;-65
2022/08/24 04:14:39;;;;;;;20.35;7.63;;;;;;;20.47;100.00;101234.19;2047579;28;20432;-63
2022/08/24 04:15:50;;;;;;;23.20;8.38;;;;;;;20.48;100.00;101235.78;2065145;28;20038;-64
2022/08/24 04:16:52;;;;;;;23.35;7.40;;;;;;;20.51;100.00;101237.91;2078755;28;20409;-63
2022/08/24 04:18:05;;;;;;;18.77;7.53;;;;;;;20.51;100.00;101229.69;2071435;28;20149;-63
2022/08/24 04:19:10;;;;;;;24.95;7.53;;;;;;;20.52;100.00;101235.97;2064372;28;20042;-64
2022/08/24 04:20:18;;;;;;;26.77;7.85;;;;;;;20.53;100.00;101243.84;2073183;28;20057;-64
2022/08/24 04:21:21;;;;;;;24.27;8.13;;;;;;;20.55;100.00;101238.88;2078018;28;20390;-64
2022/08/24 04:22:27;;;;;;;21.60;8.30;;;;;;;20.57;100.00;101242.03;2071428;28;20493;-64
2022/08/24 04:23:35;;;;;;;19.38;7.80;;;;;;;20.58;100.00;101243.63;2062302;28;20083;-63
2022/08/24 04:24:38;;;;;;;16.05;7.90;;;;;;;20.60;100.00;101243.31;2058043;28;20058;-63
2022/08/24 04:25:47;;;;;;;18.08;7.50;;;;;;;20.59;100.00;101242.53;2063965;28;20050;-63
2022/08/24 04:26:53;;;;;;;23.45;8.07;;;;;;;20.57;100.00;101239.31;2056375;28;20042;-63
2022/08/24 04:27:57;;;;;;;14.93;7.13;;;;;;;20.60;100.00;101249.59;2048057;28;20046;-63
2022/08/24 04:29:03;;;;;;;20.08;7.50;;;;;;;20.59;100.00;101242.53;2047510;28;20035;-64
2022/08/24 04:30:07;;;;;;;18.48;7.30;;;;;;;20.58;100.00;101246.38;2055031;28;20039;-64
2022/08/24 04:31:23;;;;;;;19.45;8.35;;;;;;;20.58;100.00;101249.09;2043608;28;20073;-64
2022/08/24 04:32:30;;;;;;;23.58;8.38;;;;;;;20.58;100.00;101251.84;2059433;28;20051;-64
2022/08/24 04:33:33;;;;;;;23.13;8.60;;;;;;;20.58;100.00;101243.63;2078878;28;20056;-64
2022/08/24 04:34:38;;;;;;;19.85;8.68;;;;;;;20.59;100.00;101252.66;2071063;28;20033;-64
2022/08/24 04:35:46;;;;;;;;;;;;;;;20.56;100.00;101240.44;2072079;28;20461;-63
2022/08/24 04:36:48;;;;;;;19.02;8.25;;;;;;;20.59;100.00;101252.66;2056523;28;19918;-64
2022/08/24 04:37:56;;;;;;;13.68;7.80;;;;;;;20.58;100.00;101251.03;2047945;28;20479;-64
2022/08/24 04:39:00;;;;;;;17.48;7.75;;;;;;;20.58;100.00;101254.56;2048994;28;20123;-64
2022/08/24 04:40:25;;;;;;;17.58;7.68;;;;;;;20.58;100.00;101251.03;2058517;28;20038;-63
2022/08/24 04:41:28;;;;;;;21.83;8.23;;;;;;;20.59;100.00;101258.91;2055428;28;20050;-64
2022/08/24 04:42:37;;;;;;;17.60;8.00;;;;;;;20.60;100.00;101257.00;2047665;28;20557;-65
2022/08/24 04:43:44;;;;;;;21.25;7.82;;;;;;;20.62;100.00;101256.63;2059337;28;20045;-64
2022/08/24 04:44:46;;;;;;;14.70;7.38;;;;;;;20.60;100.00;101252.31;2064768;28;20055;-78
2022/08/24 04:45:50;;;;;;;16.13;7.35;;;;;;;20.62;100.00;101253.91;2065174;28;20113;-81
2022/08/24 04:46:58;;;;;;;18.42;7.85;;;;;;;20.64;100.00;101254.38;2057707;28;20050;-83
2022/08/24 04:48:03;;;;;;;14.15;6.68;;;;;;;20.66;100.00;101246.69;2070364;28;20485;-85
2022/08/24 04:49:05;;;;;;;15.80;6.85;;;;;;;20.68;100.00;101255.31;2073073;28;20068;-84
2022/08/24 04:50:11;;;;;;;19.08;7.97;;;;;;;20.70;100.00;101259.34;2077163;28;20057;-82
2022/08/24 04:51:16;;;;;;;17.13;7.13;;;;;;;20.73;100.00;101255.16;2073296;28;20041;-84
2022/08/24 04:52:19;;;;;;;19.95;6.68;;;;;;;20.75;100.00;101255.63;2068357;28;20046;-82
2022/08/24 04:53:25;;;;;;;15.82;6.57;;;;;;;20.77;100.00;101256.06;2064910;28;20026;-82
2022/08/24 04:54:31;;;;;;;16.33;6.57;;;;;;;20.76;100.00;101251.75;2056997;28;20065;-81
2022/08/24 04:56:02;;;;;;;16.75;6.50;;;;;;;20.77;100.00;101258.81;2059316;28;20046;-81
2022/08/24 04:57:07;;;;;;;16.40;6.38;;;;;;;20.78;100.00;101254.97;2064038;28;20049;-79
2022/08/24 04:58:15;;;;;;;18.02;6.63;;;;;;;20.76;100.00;101257.22;2064453;28;20082;-79
2022/08/24 04:59:17;;;;;;;18.40;6.80;;;;;;;20.78;100.00;101260.44;2071313;28;20042;-78
2022/08/24 05:00:19;;;;;;;16.27;6.90;;;;;;;20.79;100.00;101262.03;2055920;28;20046;-79
2022/08/24 05:01:27;;;;;;;12.23;6.30;;;;;;;20.78;100.00;101263.16;2063590;28;20630;-76
2022/08/24 05:02:31;;;;;;;14.60;6.05;;;;;;;20.79;100.00;101262.03;2056038;28;20035;-77
2022/08/24 05:03:37;;;;;;;18.08;6.65;;;;;;;20.81;100.00;101259.78;2061870;28;20046;-76
2022/08/24 05:04:39;;;;;;;15.63;6.93;;;;;;;20.82;100.00;101269.56;2052663;28;20046;-77